Portada
METAR-TAF:

METAR-TAF

Aeroports :

Wallis, França

latitud: 13-14S, longitud: 176-10W, altitud: 23 m

Observació

L'informe es va fer fa 25 minuts, a les 04:00 UTC
Vent 11 kt del Est/Sud-Est, variant entre Est i Sud/Sud-Est
Temperatura 27°C
Humitat 66%
Pressió 1013 hPa
Visibilitat 10 km o més
Escasses núvols a una alçada de 2500 ft
Núvols disperses a una alçada de 26000 ft

METAR: NLWW 240400Z 12011KT 090V150 9999 FEW025 SCT260 27/20 Q1013 NOSIG

Hora: 16:25 (04:25 UTC)

Pronòstic

L'informe es va fer fa 5 hores i 25 minuts, a les 23:00 UTC
Pronòstic vàlid del 24 a les 00 UTC al 24 a les 24 UTC
Vent 12 kt del Est/Sud-Est amb ràfegues de 22 kt
Visibilitat 10 km o més
Escasses núvols a una alçada de 2500 ft
Núvols disperses a una alçada de 3500 ft
Cel ennuvolat a una alçada de 26000 ft

TAF: NLWW 232300Z 2400/2424 12012G22KT 9999 FEW025 SCT035 BKN260

Observacions i pronòstics meteorològics de més de 4000 aeroports (METAR i TAF).

Les estacions disponibles són els punts grocs i vermells al mapa.

Posi el ratolí al punt desitjat per veure el nom de l'estació.

Feu clic per veure les observacions i els pronòstics meteorològics.

Per canviar el mapa: feu clic els botons verds amb una creu de color negre per apropar; al botó verd amb un guió per allunyar la imatge; o en les fletxes verdes per a mapes adjacents.


METAR-TAF: